EZY8605 EGKK-EDDS
Flight info
| Callsign | EZY8605 |
|---|---|
| Flight time | 1h 8m |
| Altitude | 37000 |
| Route | ODVIK Y311 DVR UL9 KONAN UL607 MATUG DCT EMGOD L607 UBIDU L984 RUDUS Z738 UBENO N850 KRH T128 BADSO BADSO2A |
| Aircraft | A320/M-SDE3FGHIRWY/LB1 |
Departure
| Time | 2026-05-05 16:32 |
|---|---|
| Airport | London Gatwick Airport (EGKK) |
Arrival
| Time | 2026-05-05 17:40 |
|---|---|
| Airport | Stuttgart Airport (EDDS) |
| Time | Latitude | Longitude | Altitude | Speed | Heading |
|---|---|---|---|---|---|
| 2026-05-05 15:54 | 51.15865 | -0.16903 | 205 ft | 0 kts | 128° |
| 2026-05-05 16:16 | 51.15885 | -0.16944 | 215 ft | 2 kts | 128° |
| 2026-05-05 16:17 | 51.15907 | -0.16986 | 215 ft | 3 kts | 147° |
| 2026-05-05 16:17 | 51.15923 | -0.16997 | 213 ft | 3 kts | 184° |
| 2026-05-05 16:18 | 51.15946 | -0.16983 | 211 ft | 0 kts | 211° |
| 2026-05-05 16:18 | 51.15957 | -0.16969 | 209 ft | 3 kts | 239° |
| 2026-05-05 16:18 | 51.15965 | -0.16938 | 212 ft | 0 kts | 236° |
| 2026-05-05 16:20 | 51.15965 | -0.16939 | 212 ft | 1 kts | 236° |
| 2026-05-05 16:20 | 51.15889 | -0.17051 | 217 ft | 8 kts | 207° |
| 2026-05-05 16:21 | 51.15794 | -0.17248 | 208 ft | 16 kts | 257° |
| 2026-05-05 16:22 | 51.15773 | -0.17397 | 210 ft | 0 kts | 257° |
| 2026-05-05 16:22 | 51.15735 | -0.17670 | 204 ft | 23 kts | 258° |
| 2026-05-05 16:23 | 51.15726 | -0.17739 | 204 ft | 0 kts | 261° |
| 2026-05-05 16:23 | 51.15727 | -0.17728 | 204 ft | 5 kts | 261° |
| 2026-05-05 16:23 | 51.15763 | -0.17470 | 214 ft | 5 kts | 256° |
| 2026-05-05 16:24 | 51.15765 | -0.17459 | 215 ft | 0 kts | 256° |
| 2026-05-05 16:25 | 51.15762 | -0.17467 | 213 ft | 3 kts | 243° |
| 2026-05-05 16:25 | 51.15598 | -0.17451 | 209 ft | 18 kts | 172° |
| 2026-05-05 16:25 | 51.15526 | -0.17577 | 210 ft | 16 kts | 254° |
| 2026-05-05 16:26 | 51.15467 | -0.18028 | 204 ft | 26 kts | 254° |
| 2026-05-05 16:26 | 51.15360 | -0.18279 | 207 ft | 11 kts | 152° |
| 2026-05-05 16:27 | 51.15232 | -0.18222 | 207 ft | 23 kts | 179° |
| 2026-05-05 16:27 | 51.15163 | -0.18432 | 204 ft | 25 kts | 258° |
| 2026-05-05 16:27 | 51.15127 | -0.18726 | 214 ft | 29 kts | 258° |
| 2026-05-05 16:27 | 51.15080 | -0.19059 | 209 ft | 32 kts | 257° |
| 2026-05-05 16:28 | 51.15029 | -0.19427 | 209 ft | 36 kts | 257° |
| 2026-05-05 16:28 | 51.14973 | -0.19828 | 210 ft | 39 kts | 257° |
| 2026-05-05 16:28 | 51.14916 | -0.20263 | 204 ft | 41 kts | 258° |
| 2026-05-05 16:28 | 51.14866 | -0.20641 | 208 ft | 14 kts | 257° |
| 2026-05-05 16:29 | 51.14846 | -0.20785 | 204 ft | 13 kts | 257° |
| 2026-05-05 16:29 | 51.14822 | -0.20952 | 213 ft | 19 kts | 258° |
| 2026-05-05 16:29 | 51.14782 | -0.21185 | 210 ft | 24 kts | 252° |
| 2026-05-05 16:29 | 51.14760 | -0.21305 | 207 ft | 16 kts | 257° |
| 2026-05-05 16:30 | 51.14713 | -0.21395 | 206 ft | 7 kts | 181° |
| 2026-05-05 16:30 | 51.14697 | -0.21391 | 206 ft | 7 kts | 168° |
| 2026-05-05 16:30 | 51.14634 | -0.21331 | 207 ft | 6 kts | 158° |
| 2026-05-05 16:30 | 51.14631 | -0.21329 | 207 ft | 0 kts | 160° |
| 2026-05-05 16:31 | 51.14613 | -0.21320 | 211 ft | 11 kts | 163° |
| 2026-05-05 16:31 | 51.14518 | -0.21191 | 206 ft | 23 kts | 92° |
| 2026-05-05 16:31 | 51.14570 | -0.20749 | 214 ft | 71 kts | 78° |
| 2026-05-05 16:31 | 51.14730 | -0.19640 | 216 ft | 132 kts | 79° |
| 2026-05-05 16:32 | 51.14927 | -0.17961 | 378 ft | 166 kts | 79° |
| 2026-05-05 16:32 | 51.15154 | -0.16173 | 1207 ft | 163 kts | 77° |
| 2026-05-05 16:32 | 51.15405 | -0.14381 | 1868 ft | 173 kts | 75° |
| 2026-05-05 16:32 | 51.15692 | -0.12404 | 2225 ft | 194 kts | 75° |
| 2026-05-05 16:33 | 51.16010 | -0.10189 | 2634 ft | 213 kts | 75° |
| 2026-05-05 16:33 | 51.16356 | -0.07747 | 3078 ft | 239 kts | 76° |
| 2026-05-05 16:33 | 51.16729 | -0.05063 | 3785 ft | 254 kts | 76° |
| 2026-05-05 16:33 | 51.16882 | -0.02226 | 4705 ft | 262 kts | 90° |
| 2026-05-05 16:34 | 51.16833 | 0.00700 | 5668 ft | 267 kts | 90° |
| 2026-05-05 16:34 | 51.16777 | 0.03682 | 6596 ft | 272 kts | 90° |
| 2026-05-05 16:34 | 51.16718 | 0.06723 | 7485 ft | 277 kts | 91° |
| 2026-05-05 16:34 | 51.16659 | 0.09816 | 8390 ft | 282 kts | 91° |
| 2026-05-05 16:35 | 51.16601 | 0.12969 | 9298 ft | 287 kts | 91° |
| 2026-05-05 16:35 | 51.16544 | 0.16165 | 10308 ft | 291 kts | 91° |
| 2026-05-05 16:35 | 51.16526 | 0.19399 | 11170 ft | 294 kts | 90° |
| 2026-05-05 16:35 | 51.16535 | 0.22673 | 12037 ft | 297 kts | 89° |
| 2026-05-05 16:36 | 51.16550 | 0.25933 | 12899 ft | 300 kts | 89° |
| 2026-05-05 16:36 | 51.16566 | 0.29270 | 13764 ft | 303 kts | 89° |
| 2026-05-05 16:36 | 51.16581 | 0.32639 | 14522 ft | 306 kts | 89° |
| 2026-05-05 16:36 | 51.16592 | 0.36047 | 15244 ft | 309 kts | 90° |
| 2026-05-05 16:37 | 51.16596 | 0.39502 | 15954 ft | 313 kts | 90° |
| 2026-05-05 16:37 | 51.16595 | 0.42995 | 16659 ft | 317 kts | 90° |
| 2026-05-05 16:37 | 51.16593 | 0.46532 | 17362 ft | 321 kts | 90° |
| 2026-05-05 16:37 | 51.16590 | 0.50119 | 17950 ft | 330 kts | 90° |
| 2026-05-05 16:38 | 51.16585 | 0.53899 | 18095 ft | 351 kts | 91° |
| 2026-05-05 16:38 | 51.16582 | 0.57896 | 18229 ft | 371 kts | 90° |
| 2026-05-05 16:38 | 51.16580 | 0.62101 | 18414 ft | 387 kts | 90° |
| 2026-05-05 16:38 | 51.16576 | 0.66421 | 18837 ft | 393 kts | 91° |
| 2026-05-05 16:39 | 51.16570 | 0.70795 | 19350 ft | 397 kts | 91° |
| 2026-05-05 16:39 | 51.16562 | 0.75209 | 19868 ft | 400 kts | 91° |
| 2026-05-05 16:39 | 51.16550 | 0.79666 | 20285 ft | 404 kts | 91° |
| 2026-05-05 16:39 | 51.16537 | 0.84159 | 20802 ft | 407 kts | 91° |
| 2026-05-05 16:40 | 51.16523 | 0.88682 | 21318 ft | 411 kts | 91° |
| 2026-05-05 16:40 | 51.16506 | 0.93265 | 21817 ft | 414 kts | 92° |
| 2026-05-05 16:40 | 51.16487 | 0.97871 | 22315 ft | 418 kts | 92° |
| 2026-05-05 16:40 | 51.16466 | 1.02465 | 22801 ft | 422 kts | 92° |
| 2026-05-05 16:41 | 51.16441 | 1.07162 | 23273 ft | 426 kts | 92° |
| 2026-05-05 16:41 | 51.16415 | 1.11903 | 23713 ft | 429 kts | 92° |
| 2026-05-05 16:41 | 51.16389 | 1.16665 | 24129 ft | 432 kts | 92° |
| 2026-05-05 16:41 | 51.16362 | 1.21461 | 24548 ft | 434 kts | 92° |
| 2026-05-05 16:42 | 51.16332 | 1.26295 | 24962 ft | 436 kts | 92° |
| 2026-05-05 16:42 | 51.16297 | 1.31135 | 25366 ft | 438 kts | 92° |
| 2026-05-05 16:42 | 51.16257 | 1.35996 | 25766 ft | 441 kts | 93° |
| 2026-05-05 16:42 | 51.16141 | 1.40889 | 26167 ft | 442 kts | 95° |
| 2026-05-05 16:43 | 51.15936 | 1.45784 | 26558 ft | 444 kts | 96° |
| 2026-05-05 16:43 | 51.15673 | 1.50702 | 26942 ft | 446 kts | 97° |
| 2026-05-05 16:43 | 51.15387 | 1.55632 | 27313 ft | 448 kts | 97° |
| 2026-05-05 16:43 | 51.15099 | 1.60596 | 27671 ft | 451 kts | 97° |
| 2026-05-05 16:44 | 51.14823 | 1.65585 | 28028 ft | 453 kts | 97° |
| 2026-05-05 16:44 | 51.14562 | 1.70591 | 28374 ft | 455 kts | 97° |
| 2026-05-05 16:44 | 51.14310 | 1.75633 | 28718 ft | 457 kts | 97° |
| 2026-05-05 16:44 | 51.14065 | 1.80682 | 29061 ft | 459 kts | 97° |
| 2026-05-05 16:45 | 51.13817 | 1.85768 | 29391 ft | 461 kts | 97° |
| 2026-05-05 16:45 | 51.13561 | 1.90854 | 29723 ft | 463 kts | 97° |
| 2026-05-05 16:45 | 51.13300 | 1.95885 | 30140 ft | 461 kts | 97° |
| 2026-05-05 16:45 | 51.13032 | 2.00974 | 30536 ft | 460 kts | 97° |
| 2026-05-05 16:46 | 51.12765 | 2.06047 | 30920 ft | 459 kts | 97° |
| 2026-05-05 16:46 | 51.12497 | 2.11108 | 31299 ft | 459 kts | 97° |
| 2026-05-05 16:46 | 51.12223 | 2.16164 | 31664 ft | 458 kts | 98° |
| 2026-05-05 16:46 | 51.11945 | 2.21217 | 32034 ft | 457 kts | 98° |
| 2026-05-05 16:47 | 51.11669 | 2.26247 | 32400 ft | 457 kts | 98° |
| 2026-05-05 16:47 | 51.11394 | 2.31290 | 32769 ft | 457 kts | 98° |
| 2026-05-05 16:47 | 51.11116 | 2.36313 | 33131 ft | 456 kts | 98° |
| 2026-05-05 16:47 | 51.10834 | 2.41339 | 33503 ft | 456 kts | 98° |
| 2026-05-05 16:48 | 51.10547 | 2.46365 | 33872 ft | 455 kts | 98° |
| 2026-05-05 16:48 | 51.10260 | 2.51362 | 34184 ft | 455 kts | 98° |
| 2026-05-05 16:48 | 51.09972 | 2.56375 | 34479 ft | 455 kts | 98° |
| 2026-05-05 16:48 | 51.09685 | 2.61391 | 34771 ft | 455 kts | 98° |
| 2026-05-05 16:49 | 51.09223 | 2.66356 | 35042 ft | 452 kts | 106° |
| 2026-05-05 16:49 | 51.08392 | 2.71158 | 35306 ft | 451 kts | 109° |
| 2026-05-05 16:49 | 51.07521 | 2.75949 | 35565 ft | 451 kts | 109° |
| 2026-05-05 16:49 | 51.06653 | 2.80748 | 35822 ft | 451 kts | 109° |
| 2026-05-05 16:50 | 51.05797 | 2.85487 | 36071 ft | 452 kts | 109° |
| 2026-05-05 16:50 | 51.04928 | 2.90285 | 36318 ft | 452 kts | 109° |
| 2026-05-05 16:50 | 51.04054 | 2.95082 | 36553 ft | 452 kts | 109° |
| 2026-05-05 16:50 | 51.03177 | 2.99876 | 36785 ft | 453 kts | 109° |
| 2026-05-05 16:51 | 51.02292 | 3.04686 | 36896 ft | 453 kts | 109° |
| 2026-05-05 16:51 | 51.01406 | 3.09493 | 36908 ft | 453 kts | 109° |
| 2026-05-05 16:51 | 50.99630 | 3.19102 | 36896 ft | 453 kts | 109° |
| 2026-05-05 16:52 | 50.97849 | 3.28699 | 36887 ft | 453 kts | 109° |
| 2026-05-05 16:52 | 50.96054 | 3.38286 | 36882 ft | 453 kts | 109° |
| 2026-05-05 16:53 | 50.94252 | 3.47862 | 36880 ft | 453 kts | 110° |
| 2026-05-05 16:53 | 50.92446 | 3.57444 | 36875 ft | 453 kts | 110° |
| 2026-05-05 16:54 | 50.90634 | 3.67001 | 36872 ft | 453 kts | 110° |
| 2026-05-05 16:54 | 50.88801 | 3.76553 | 36868 ft | 453 kts | 110° |
| 2026-05-05 16:55 | 50.86953 | 3.86086 | 36867 ft | 453 kts | 110° |
| 2026-05-05 16:55 | 50.85099 | 3.95614 | 36864 ft | 453 kts | 110° |
| 2026-05-05 16:56 | 50.83236 | 4.05127 | 36865 ft | 453 kts | 110° |
| 2026-05-05 16:56 | 50.81363 | 4.14643 | 36866 ft | 453 kts | 111° |
| 2026-05-05 16:57 | 50.79487 | 4.24159 | 36868 ft | 453 kts | 111° |
| 2026-05-05 16:57 | 50.77605 | 4.33656 | 36870 ft | 453 kts | 111° |
| 2026-05-05 16:58 | 50.75715 | 4.43161 | 36871 ft | 454 kts | 111° |
| 2026-05-05 16:58 | 50.73809 | 4.52657 | 36868 ft | 454 kts | 111° |
| 2026-05-05 16:59 | 50.71901 | 4.62152 | 36864 ft | 454 kts | 111° |
| 2026-05-05 16:59 | 50.70050 | 4.71615 | 36859 ft | 454 kts | 110° |
| 2026-05-05 17:00 | 50.68220 | 4.81152 | 36852 ft | 455 kts | 110° |
| 2026-05-05 17:00 | 50.66367 | 4.90681 | 36840 ft | 455 kts | 111° |
| 2026-05-05 17:01 | 50.64461 | 5.00186 | 36855 ft | 455 kts | 112° |
| 2026-05-05 17:01 | 50.62489 | 5.09663 | 36832 ft | 455 kts | 112° |
| 2026-05-05 17:02 | 50.60514 | 5.19129 | 36847 ft | 455 kts | 112° |
| 2026-05-05 17:02 | 50.59530 | 5.23862 | 36992 ft | 454 kts | 110° |
| 2026-05-05 17:02 | 50.58562 | 5.28543 | 36839 ft | 447 kts | 110° |
| 2026-05-05 17:03 | 50.56645 | 5.37809 | 36678 ft | 445 kts | 112° |
| 2026-05-05 17:03 | 50.55681 | 5.42431 | 36871 ft | 448 kts | 112° |
| 2026-05-05 17:03 | 50.54696 | 5.47119 | 36860 ft | 453 kts | 112° |
| 2026-05-05 17:04 | 50.52700 | 5.56561 | 36862 ft | 456 kts | 112° |
| 2026-05-05 17:04 | 50.50976 | 5.66182 | 36857 ft | 460 kts | 105° |
| 2026-05-05 17:05 | 50.49714 | 5.76042 | 36850 ft | 461 kts | 105° |
| 2026-05-05 17:05 | 50.48444 | 5.85907 | 36843 ft | 461 kts | 105° |
| 2026-05-05 17:06 | 50.47155 | 5.95754 | 36833 ft | 460 kts | 105° |
| 2026-05-05 17:06 | 50.45860 | 6.05587 | 36830 ft | 460 kts | 105° |
| 2026-05-05 17:07 | 50.44559 | 6.15416 | 36815 ft | 460 kts | 105° |
| 2026-05-05 17:07 | 50.43251 | 6.25165 | 36808 ft | 460 kts | 106° |
| 2026-05-05 17:08 | 50.41720 | 6.34857 | 36796 ft | 453 kts | 118° |
| 2026-05-05 17:08 | 50.40175 | 6.39081 | 36796 ft | 444 kts | 133° |
| 2026-05-05 17:08 | 50.38118 | 6.42631 | 36789 ft | 439 kts | 138° |
| 2026-05-05 17:09 | 50.34549 | 6.48407 | 36789 ft | 440 kts | 138° |
| 2026-05-05 17:09 | 50.30286 | 6.55282 | 36785 ft | 440 kts | 138° |
| 2026-05-05 17:10 | 50.26025 | 6.62165 | 36797 ft | 441 kts | 138° |
| 2026-05-05 17:10 | 50.21783 | 6.69008 | 36792 ft | 441 kts | 138° |
| 2026-05-05 17:11 | 50.19650 | 6.72429 | 36417 ft | 440 kts | 139° |
| 2026-05-05 17:11 | 50.17513 | 6.75848 | 35692 ft | 440 kts | 139° |
| 2026-05-05 17:11 | 50.15350 | 6.79308 | 35003 ft | 439 kts | 139° |
| 2026-05-05 17:11 | 50.13225 | 6.82709 | 34349 ft | 438 kts | 139° |
| 2026-05-05 17:12 | 50.11100 | 6.86106 | 33690 ft | 437 kts | 140° |
| 2026-05-05 17:12 | 50.08979 | 6.89491 | 32873 ft | 436 kts | 139° |
| 2026-05-05 17:12 | 50.06855 | 6.92873 | 32012 ft | 438 kts | 139° |
| 2026-05-05 17:12 | 50.04719 | 6.96264 | 31115 ft | 439 kts | 139° |
| 2026-05-05 17:13 | 50.02575 | 6.99661 | 30213 ft | 442 kts | 139° |
| 2026-05-05 17:13 | 50.00417 | 7.03081 | 29171 ft | 444 kts | 139° |
| 2026-05-05 17:13 | 49.98242 | 7.06520 | 27995 ft | 448 kts | 138° |
| 2026-05-05 17:13 | 49.96059 | 7.09969 | 27085 ft | 447 kts | 138° |
| 2026-05-05 17:14 | 49.93914 | 7.13365 | 26298 ft | 443 kts | 138° |
| 2026-05-05 17:14 | 49.91764 | 7.16761 | 25523 ft | 440 kts | 138° |
| 2026-05-05 17:14 | 49.89621 | 7.20137 | 24814 ft | 437 kts | 137° |
| 2026-05-05 17:14 | 49.87493 | 7.23478 | 24108 ft | 433 kts | 137° |
| 2026-05-05 17:15 | 49.85384 | 7.26785 | 23401 ft | 430 kts | 137° |
| 2026-05-05 17:15 | 49.83292 | 7.30066 | 22649 ft | 427 kts | 137° |
| 2026-05-05 17:15 | 49.81210 | 7.33327 | 21955 ft | 423 kts | 137° |
| 2026-05-05 17:15 | 49.79150 | 7.36546 | 21298 ft | 419 kts | 137° |
| 2026-05-05 17:16 | 49.77114 | 7.39727 | 20649 ft | 415 kts | 137° |
| 2026-05-05 17:16 | 49.75092 | 7.42885 | 20003 ft | 411 kts | 137° |
| 2026-05-05 17:16 | 49.73087 | 7.46011 | 19370 ft | 407 kts | 137° |
| 2026-05-05 17:16 | 49.71109 | 7.49106 | 18734 ft | 405 kts | 136° |
| 2026-05-05 17:17 | 49.69425 | 7.52589 | 18145 ft | 405 kts | 126° |
| 2026-05-05 17:17 | 49.67902 | 7.56236 | 17479 ft | 402 kts | 125° |
| 2026-05-05 17:17 | 49.66395 | 7.59852 | 16847 ft | 399 kts | 125° |
| 2026-05-05 17:17 | 49.64898 | 7.63436 | 16249 ft | 395 kts | 126° |
| 2026-05-05 17:18 | 49.63411 | 7.66985 | 15672 ft | 392 kts | 126° |
| 2026-05-05 17:18 | 49.61937 | 7.70502 | 15106 ft | 389 kts | 126° |
| 2026-05-05 17:18 | 49.60474 | 7.73998 | 14563 ft | 386 kts | 126° |
| 2026-05-05 17:18 | 49.59022 | 7.77460 | 14018 ft | 383 kts | 126° |
| 2026-05-05 17:19 | 49.57577 | 7.80890 | 13467 ft | 380 kts | 126° |
| 2026-05-05 17:19 | 49.56142 | 7.84297 | 12951 ft | 377 kts | 126° |
| 2026-05-05 17:19 | 49.54714 | 7.87685 | 12791 ft | 377 kts | 126° |
| 2026-05-05 17:19 | 49.53288 | 7.91067 | 12819 ft | 377 kts | 126° |
| 2026-05-05 17:20 | 49.51859 | 7.94451 | 12819 ft | 377 kts | 126° |
| 2026-05-05 17:20 | 49.50429 | 7.97842 | 12823 ft | 377 kts | 126° |
| 2026-05-05 17:20 | 49.49017 | 8.01183 | 12825 ft | 377 kts | 126° |
| 2026-05-05 17:20 | 49.47586 | 8.04561 | 12823 ft | 377 kts | 126° |
| 2026-05-05 17:21 | 49.46131 | 8.07987 | 12830 ft | 377 kts | 126° |
| 2026-05-05 17:21 | 49.44695 | 8.11361 | 12832 ft | 377 kts | 126° |
| 2026-05-05 17:21 | 49.43276 | 8.14690 | 12833 ft | 377 kts | 126° |
| 2026-05-05 17:22 | 49.40404 | 8.21425 | 12625 ft | 373 kts | 126° |
| 2026-05-05 17:22 | 49.38989 | 8.24747 | 12040 ft | 371 kts | 126° |
| 2026-05-05 17:22 | 49.37573 | 8.28061 | 11831 ft | 371 kts | 126° |
| 2026-05-05 17:22 | 49.36158 | 8.31368 | 11827 ft | 371 kts | 126° |
| 2026-05-05 17:23 | 49.34741 | 8.34672 | 11833 ft | 371 kts | 126° |
| 2026-05-05 17:23 | 49.33320 | 8.37979 | 11835 ft | 371 kts | 126° |
| 2026-05-05 17:23 | 49.31900 | 8.41281 | 11836 ft | 371 kts | 126° |
| 2026-05-05 17:23 | 49.30477 | 8.44582 | 11835 ft | 371 kts | 126° |
| 2026-05-05 17:24 | 49.29055 | 8.47880 | 11835 ft | 371 kts | 126° |
| 2026-05-05 17:24 | 49.27632 | 8.51173 | 11835 ft | 371 kts | 126° |
| 2026-05-05 17:24 | 49.26206 | 8.54473 | 11840 ft | 371 kts | 126° |
| 2026-05-05 17:24 | 49.24783 | 8.57766 | 11832 ft | 371 kts | 126° |
| 2026-05-05 17:25 | 49.23357 | 8.61057 | 11832 ft | 371 kts | 126° |
| 2026-05-05 17:25 | 49.22396 | 8.63277 | 11671 ft | 368 kts | 126° |
| 2026-05-05 17:25 | 49.20533 | 8.67580 | 10882 ft | 364 kts | 126° |
| 2026-05-05 17:25 | 49.19122 | 8.70830 | 10285 ft | 361 kts | 126° |
| 2026-05-05 17:26 | 49.17742 | 8.74007 | 9742 ft | 356 kts | 126° |
| 2026-05-05 17:26 | 49.16400 | 8.77096 | 9593 ft | 340 kts | 126° |
| 2026-05-05 17:26 | 49.15138 | 8.79996 | 9464 ft | 325 kts | 127° |
| 2026-05-05 17:26 | 49.13893 | 8.82845 | 9329 ft | 312 kts | 127° |
| 2026-05-05 17:27 | 49.12729 | 8.85511 | 9194 ft | 300 kts | 127° |
| 2026-05-05 17:27 | 49.11580 | 8.88155 | 9085 ft | 292 kts | 127° |
| 2026-05-05 17:27 | 49.10468 | 8.90728 | 8836 ft | 289 kts | 127° |
| 2026-05-05 17:27 | 49.09377 | 8.93256 | 8795 ft | 290 kts | 127° |
| 2026-05-05 17:28 | 49.08274 | 8.95811 | 8433 ft | 288 kts | 127° |
| 2026-05-05 17:28 | 49.07173 | 8.98362 | 8036 ft | 287 kts | 127° |
| 2026-05-05 17:28 | 49.06074 | 9.00896 | 7646 ft | 286 kts | 127° |
| 2026-05-05 17:28 | 49.04982 | 9.03413 | 7256 ft | 284 kts | 127° |
| 2026-05-05 17:29 | 49.03895 | 9.05919 | 6860 ft | 283 kts | 127° |
| 2026-05-05 17:29 | 49.02810 | 9.08413 | 6459 ft | 282 kts | 127° |
| 2026-05-05 17:29 | 49.01732 | 9.10900 | 6080 ft | 280 kts | 127° |
| 2026-05-05 17:29 | 49.00658 | 9.13368 | 5997 ft | 280 kts | 127° |
| 2026-05-05 17:30 | 48.99580 | 9.15845 | 6001 ft | 281 kts | 127° |
| 2026-05-05 17:30 | 48.98497 | 9.18331 | 6000 ft | 282 kts | 127° |
| 2026-05-05 17:30 | 48.97417 | 9.20816 | 6001 ft | 282 kts | 127° |
| 2026-05-05 17:30 | 48.96338 | 9.23315 | 5999 ft | 282 kts | 127° |
| 2026-05-05 17:31 | 48.95275 | 9.25788 | 5994 ft | 274 kts | 127° |
| 2026-05-05 17:31 | 48.94257 | 9.28168 | 5865 ft | 262 kts | 127° |
| 2026-05-05 17:31 | 48.93288 | 9.30440 | 5712 ft | 251 kts | 127° |
| 2026-05-05 17:31 | 48.92346 | 9.32650 | 5429 ft | 248 kts | 127° |
| 2026-05-05 17:32 | 48.91407 | 9.34830 | 5095 ft | 245 kts | 129° |
| 2026-05-05 17:32 | 48.90360 | 9.36845 | 4997 ft | 243 kts | 133° |
| 2026-05-05 17:32 | 48.89268 | 9.38819 | 5001 ft | 244 kts | 134° |
| 2026-05-05 17:32 | 48.88175 | 9.40793 | 5003 ft | 244 kts | 134° |
| 2026-05-05 17:33 | 48.87083 | 9.42767 | 5003 ft | 244 kts | 134° |
| 2026-05-05 17:33 | 48.85980 | 9.44725 | 4939 ft | 242 kts | 138° |
| 2026-05-05 17:33 | 48.84755 | 9.46442 | 4624 ft | 239 kts | 143° |
| 2026-05-05 17:33 | 48.83369 | 9.47743 | 4271 ft | 233 kts | 160° |
| 2026-05-05 17:34 | 48.81886 | 9.48615 | 4019 ft | 229 kts | 163° |
| 2026-05-05 17:34 | 48.80378 | 9.49431 | 4004 ft | 231 kts | 164° |
| 2026-05-05 17:34 | 48.78859 | 9.50245 | 4005 ft | 231 kts | 164° |
| 2026-05-05 17:34 | 48.77352 | 9.51056 | 4002 ft | 229 kts | 164° |
| 2026-05-05 17:35 | 48.75867 | 9.51505 | 3997 ft | 208 kts | 189° |
| 2026-05-05 17:35 | 48.74637 | 9.50719 | 3994 ft | 184 kts | 227° |
| 2026-05-05 17:35 | 48.74029 | 9.49086 | 4003 ft | 180 kts | 254° |
| 2026-05-05 17:35 | 48.73692 | 9.47252 | 4013 ft | 181 kts | 253° |
| 2026-05-05 17:36 | 48.73354 | 9.45427 | 3976 ft | 176 kts | 253° |
| 2026-05-05 17:36 | 48.73034 | 9.43709 | 3793 ft | 164 kts | 253° |
| 2026-05-05 17:36 | 48.72733 | 9.42096 | 3595 ft | 155 kts | 253° |
| 2026-05-05 17:36 | 48.72450 | 9.40584 | 3405 ft | 145 kts | 253° |
| 2026-05-05 17:37 | 48.72183 | 9.39164 | 3232 ft | 137 kts | 253° |
| 2026-05-05 17:37 | 48.72010 | 9.38240 | 3105 ft | 133 kts | 252° |
| 2026-05-05 17:37 | 48.71676 | 9.36460 | 2876 ft | 132 kts | 253° |
| 2026-05-05 17:37 | 48.71425 | 9.35125 | 2683 ft | 132 kts | 254° |
| 2026-05-05 17:38 | 48.71175 | 9.33791 | 2546 ft | 132 kts | 253° |
| 2026-05-05 17:38 | 48.70923 | 9.32453 | 2340 ft | 133 kts | 253° |
| 2026-05-05 17:38 | 48.70668 | 9.31101 | 2157 ft | 134 kts | 253° |
| 2026-05-05 17:38 | 48.70411 | 9.29739 | 1965 ft | 135 kts | 254° |
| 2026-05-05 17:39 | 48.70153 | 9.28374 | 1779 ft | 135 kts | 255° |
| 2026-05-05 17:39 | 48.69894 | 9.27006 | 1592 ft | 134 kts | 253° |
| 2026-05-05 17:39 | 48.69639 | 9.25656 | 1415 ft | 132 kts | 253° |
| 2026-05-05 17:39 | 48.69388 | 9.24326 | 1255 ft | 131 kts | 254° |
| 2026-05-05 17:40 | 48.69172 | 9.23177 | 1221 ft | 62 kts | 253° |
| 2026-05-05 17:40 | 48.69109 | 9.22849 | 1224 ft | 20 kts | 256° |
| 2026-05-05 17:40 | 48.69056 | 9.22542 | 1229 ft | 33 kts | 255° |
| 2026-05-05 17:40 | 48.68978 | 9.22164 | 1237 ft | 41 kts | 252° |
| 2026-05-05 17:41 | 48.68942 | 9.21760 | 1247 ft | 36 kts | 275° |
| 2026-05-05 17:41 | 48.68971 | 9.21555 | 1250 ft | 0 kts | 283° |
| 2026-05-05 17:42 | 48.68971 | 9.21552 | 1250 ft | 1 kts | 284° |
| 2026-05-05 17:42 | 48.68981 | 9.21495 | 1259 ft | 11 kts | 285° |
| 2026-05-05 17:42 | 48.68995 | 9.21335 | 1263 ft | 20 kts | 263° |
| 2026-05-05 17:43 | 48.68957 | 9.21101 | 1263 ft | 25 kts | 254° |
| 2026-05-05 17:43 | 48.68907 | 9.20850 | 1271 ft | 22 kts | 251° |
| 2026-05-05 17:43 | 48.68940 | 9.20658 | 1270 ft | 22 kts | 311° |
| 2026-05-05 17:43 | 48.69048 | 9.20487 | 1278 ft | 19 kts | 315° |
| 2026-05-05 17:44 | 48.69046 | 9.20350 | 1283 ft | 12 kts | 249° |
| 2026-05-05 17:44 | 48.69020 | 9.20220 | 1287 ft | 14 kts | 255° |
| 2026-05-05 17:44 | 48.69001 | 9.20111 | 1290 ft | 9 kts | 256° |
| 2026-05-05 17:44 | 48.68953 | 9.20077 | 1288 ft | 1 kts | 168° |